createdAt,value
2019-01-13T00:02:20.407Z,29.73
2019-01-13T00:04:47.752Z,32.87
2019-01-13T00:07:15.086Z,28.73
2019-01-13T00:09:42.356Z,31.23
2019-01-13T00:12:09.727Z,30.70
2019-01-13T00:14:37.181Z,27.93
2019-01-13T00:17:04.570Z,28.13
2019-01-13T00:19:32.005Z,27.13
2019-01-13T00:21:59.386Z,27.33
2019-01-13T00:24:26.764Z,26.33
2019-01-13T00:26:54.095Z,28.53
2019-01-13T00:29:21.407Z,26.43
2019-01-13T00:31:48.717Z,27.87
2019-01-13T00:34:16.068Z,25.70
2019-01-13T00:36:45.433Z,25.80
2019-01-13T00:39:12.805Z,26.07
2019-01-13T00:41:40.231Z,27.67
2019-01-13T00:44:07.582Z,29.53
2019-01-13T00:46:34.906Z,29.10
2019-01-13T00:49:02.264Z,26.73
2019-01-13T00:51:29.618Z,27.90
2019-01-13T00:53:57.053Z,23.83
2019-01-13T00:56:24.426Z,29.50
2019-01-13T00:58:51.852Z,25.87
2019-01-13T01:01:21.721Z,25.47
2019-01-13T01:03:49.086Z,19.47
2019-01-13T01:06:16.478Z,22.10
2019-01-13T01:08:43.892Z,23.77
2019-01-13T01:11:11.237Z,25.93
2019-01-13T01:13:38.557Z,22.20
2019-01-13T01:16:05.882Z,20.00
2019-01-13T01:18:33.220Z,22.40
2019-01-13T01:21:00.550Z,20.97
2019-01-13T01:23:27.910Z,22.57
2019-01-13T01:25:55.306Z,21.10
2019-01-13T01:28:22.670Z,20.10
2019-01-13T01:30:50.114Z,20.17
2019-01-13T01:33:17.358Z,22.03
2019-01-13T01:35:44.730Z,19.13
2019-01-13T01:38:12.128Z,20.23
2019-01-13T01:40:39.520Z,19.00
2019-01-13T01:43:06.902Z,17.97
2019-01-13T01:45:34.122Z,18.50
2019-01-13T01:48:03.301Z,20.37
2019-01-13T01:50:30.515Z,18.97
2019-01-13T01:52:57.752Z,22.37
2019-01-13T01:55:24.968Z,19.43
2019-01-13T01:57:52.426Z,17.87
2019-01-13T02:00:24.402Z,19.87
2019-01-13T02:02:51.909Z,25.17
2019-01-13T02:05:19.430Z,21.40
2019-01-13T02:07:46.769Z,19.80
2019-01-13T02:10:16.549Z,26.33
2019-01-13T02:12:43.888Z,23.30
2019-01-13T02:15:19.679Z,19.77
2019-01-13T02:17:47.002Z,19.80
2019-01-13T02:20:15.521Z,23.70
2019-01-13T02:22:43.085Z,23.43
2019-01-13T02:25:11.795Z,21.67
2019-01-13T02:27:39.181Z,23.80
2019-01-13T02:30:08.887Z,21.37
2019-01-13T02:32:36.325Z,25.03
2019-01-13T02:35:04.707Z,20.77
2019-01-13T02:37:32.027Z,25.90
2019-01-13T02:39:59.373Z,26.03
2019-01-13T02:42:26.701Z,26.40
2019-01-13T02:44:54.033Z,27.30
2019-01-13T02:47:21.267Z,26.93
2019-01-13T02:49:48.631Z,24.97
2019-01-13T02:52:16.023Z,27.50
2019-01-13T02:54:43.433Z,28.83
2019-01-13T02:57:10.721Z,31.40
2019-01-13T02:59:38.016Z,28.90
2019-01-13T03:02:05.402Z,29.30
2019-01-13T03:04:32.798Z,33.33
2019-01-13T03:07:00.208Z,34.50
2019-01-13T03:09:27.754Z,36.97
2019-01-13T03:11:55.623Z,31.63
2019-01-13T03:14:22.948Z,29.00
2019-01-13T03:16:50.310Z,33.50
2019-01-13T03:19:17.729Z,29.30
2019-01-13T03:21:45.037Z,31.33
2019-01-13T03:24:12.403Z,29.10
2019-01-13T03:26:39.813Z,29.33
2019-01-13T03:29:07.205Z,23.13
2019-01-13T03:31:34.573Z,23.60
2019-01-13T03:34:01.824Z,23.03
2019-01-13T03:36:29.282Z,24.97
2019-01-13T03:38:56.489Z,24.07
2019-01-13T03:41:23.785Z,19.43
2019-01-13T03:43:51.197Z,19.50
2019-01-13T03:46:18.610Z,23.73
2019-01-13T03:48:45.924Z,22.97
2019-01-13T03:51:13.382Z,26.47
2019-01-13T03:53:40.686Z,20.92
2019-01-13T03:56:08.053Z,22.60
2019-01-13T03:58:35.372Z,26.27
2019-01-13T04:01:02.899Z,21.90
2019-01-13T04:03:30.261Z,20.23
2019-01-13T04:05:57.565Z,28.40
2019-01-13T04:08:24.980Z,24.50
2019-01-13T04:10:52.290Z,25.97
2019-01-13T04:13:19.585Z,21.80
2019-01-13T04:15:59.701Z,22.87
2019-01-13T04:18:27.156Z,21.83
2019-01-13T04:20:54.502Z,26.77
2019-01-13T04:23:21.981Z,32.43
2019-01-13T04:25:49.447Z,22.40
2019-01-13T04:28:16.816Z,27.57
2019-01-13T04:30:44.144Z,24.97
2019-01-13T04:33:11.488Z,23.47
2019-01-13T04:35:38.862Z,19.73
2019-01-13T04:38:06.180Z,19.90
2019-01-13T04:40:33.525Z,22.30
2019-01-13T04:43:00.952Z,20.40
2019-01-13T04:45:28.336Z,21.60
2019-01-13T04:47:55.709Z,20.57
2019-01-13T04:50:23.031Z,17.20
2019-01-13T04:52:50.457Z,21.23
2019-01-13T04:55:17.848Z,18.53
2019-01-13T04:57:45.160Z,19.33
2019-01-13T05:00:14.796Z,22.77
2019-01-13T05:02:42.148Z,17.73
2019-01-13T05:05:09.526Z,18.67
2019-01-13T05:07:36.850Z,16.37
2019-01-13T05:10:06.144Z,16.00
2019-01-13T05:12:33.436Z,15.23
2019-01-13T05:15:00.854Z,18.33
2019-01-13T05:17:28.193Z,17.83
2019-01-13T05:19:55.535Z,14.67
2019-01-13T05:22:23.009Z,13.90
2019-01-13T05:24:50.371Z,17.17
2019-01-13T05:27:17.610Z,13.97
2019-01-13T05:29:44.886Z,14.27
2019-01-13T05:32:12.224Z,11.50
2019-01-13T05:34:39.537Z,11.10
2019-01-13T05:37:06.930Z,9.77
2019-01-13T05:39:34.283Z,9.80
2019-01-13T05:42:01.622Z,9.83
2019-01-13T05:44:28.942Z,10.43
2019-01-13T05:46:56.462Z,9.30
2019-01-13T05:49:23.876Z,9.73
2019-01-13T05:51:51.184Z,9.67
2019-01-13T05:54:18.511Z,9.63
2019-01-13T05:56:45.777Z,10.67
2019-01-13T05:59:13.010Z,10.43
2019-01-13T06:01:40.332Z,10.50
2019-01-13T06:04:07.614Z,11.97
2019-01-13T06:06:35.066Z,12.33
2019-01-13T06:09:04.102Z,12.80
2019-01-13T06:11:31.417Z,11.87
2019-01-13T06:13:58.750Z,14.00
2019-01-13T06:16:26.088Z,14.00
2019-01-13T06:18:53.321Z,13.20
2019-01-13T06:21:20.685Z,13.50
2019-01-13T06:23:48.134Z,14.37
2019-01-13T06:26:15.359Z,14.73
2019-01-13T06:28:42.693Z,16.57
2019-01-13T06:31:10.046Z,18.10
2019-01-13T06:33:37.485Z,20.17
2019-01-13T06:36:04.835Z,19.60
2019-01-13T06:38:32.251Z,19.60
2019-01-13T06:40:59.526Z,24.80
2019-01-13T06:43:26.854Z,21.57
2019-01-13T06:45:54.133Z,26.73
2019-01-13T06:48:21.474Z,20.23
2019-01-13T06:50:48.703Z,21.73
2019-01-13T06:53:16.091Z,19.13
2019-01-13T06:55:43.465Z,19.37
2019-01-13T06:58:10.893Z,20.20
2019-01-13T07:00:38.241Z,16.03
2019-01-13T07:03:05.600Z,17.00
2019-01-13T07:05:32.958Z,17.63
2019-01-13T07:08:00.338Z,18.17
2019-01-13T07:10:27.782Z,17.87
2019-01-13T07:12:55.275Z,19.53
2019-01-13T07:15:22.670Z,20.50
2019-01-13T07:17:50.067Z,18.97
2019-01-13T07:20:18.741Z,17.90
2019-01-13T07:22:46.132Z,18.30
2019-01-13T07:25:13.444Z,16.23
2019-01-13T07:27:40.677Z,16.77
2019-01-13T07:30:11.505Z,16.50
2019-01-13T07:32:38.722Z,17.17
2019-01-13T07:35:06.243Z,19.67
2019-01-13T07:37:33.581Z,20.80
2019-01-13T07:40:07.224Z,14.17
2019-01-13T07:42:34.649Z,14.40
2019-01-13T07:45:02.003Z,14.77
2019-01-13T07:47:29.489Z,17.47
2019-01-13T07:49:56.866Z,16.60
2019-01-13T07:52:24.262Z,13.83
2019-01-13T07:54:51.625Z,15.27
2019-01-13T07:57:19.165Z,14.07
2019-01-13T07:59:46.429Z,13.23
2019-01-13T08:02:17.867Z,12.57
2019-01-13T08:04:43.085Z,14.13
2019-01-13T08:07:10.445Z,12.07
2019-01-13T08:09:37.822Z,16.07
2019-01-13T08:12:05.255Z,15.23
2019-01-13T08:14:32.737Z,13.43
2019-01-13T08:17:00.105Z,17.03
2019-01-13T08:19:27.342Z,12.77
2019-01-13T08:21:54.657Z,14.40
2019-01-13T08:24:21.981Z,16.47
2019-01-13T08:26:49.261Z,15.30
2019-01-13T08:29:16.501Z,12.17
2019-01-13T08:31:43.845Z,10.40
2019-01-13T08:34:11.165Z,12.83
2019-01-13T08:36:38.419Z,9.93
2019-01-13T08:39:06.955Z,13.37
2019-01-13T08:41:34.221Z,12.50
2019-01-13T08:44:01.535Z,11.77
2019-01-13T08:46:28.929Z,10.83
2019-01-13T08:48:56.311Z,12.03
2019-01-13T08:51:23.526Z,12.07
2019-01-13T08:53:50.825Z,13.67
2019-01-13T08:56:18.169Z,14.10
2019-01-13T08:58:45.501Z,12.53
2019-01-13T09:01:12.895Z,11.20
2019-01-13T09:03:40.187Z,11.13
2019-01-13T09:06:07.617Z,10.70
2019-01-13T09:08:34.865Z,14.93
2019-01-13T09:11:02.068Z,13.47
2019-01-13T09:13:29.372Z,11.50
2019-01-13T09:15:57.917Z,12.97
2019-01-13T09:18:25.181Z,13.77
2019-01-13T09:20:52.448Z,14.67
2019-01-13T09:23:19.841Z,13.17
2019-01-13T09:25:47.181Z,15.03
2019-01-13T09:28:14.437Z,15.03
2019-01-13T09:30:41.781Z,15.67
2019-01-13T09:33:09.125Z,16.03
2019-01-13T09:35:36.480Z,18.73
2019-01-13T09:38:03.903Z,18.57
2019-01-13T09:40:31.269Z,18.10
2019-01-13T09:43:00.223Z,16.10
2019-01-13T09:45:27.601Z,14.67
2019-01-13T09:47:57.649Z,16.63
2019-01-13T09:50:24.885Z,18.93
2019-01-13T09:52:55.010Z,21.97
2019-01-13T09:55:23.041Z,19.53
2019-01-13T09:57:50.362Z,22.40
2019-01-13T10:00:22.748Z,24.20
2019-01-13T10:02:50.280Z,23.13
2019-01-13T10:05:17.698Z,24.40
2019-01-13T10:07:44.921Z,25.33
2019-01-13T10:10:12.242Z,23.00
2019-01-13T10:12:39.568Z,23.57
2019-01-13T10:15:09.922Z,26.17
2019-01-13T10:17:37.388Z,24.40
2019-01-13T10:20:05.569Z,29.50
2019-01-13T10:22:32.909Z,23.00
2019-01-13T10:25:01.950Z,28.30
2019-01-13T10:27:29.280Z,28.97
2019-01-13T10:29:56.651Z,29.30
2019-01-13T10:32:23.965Z,30.67
2019-01-13T10:34:51.681Z,28.60
2019-01-13T10:37:18.995Z,31.90
2019-01-13T10:39:46.225Z,37.07
2019-01-13T10:42:13.571Z,40.50
2019-01-13T10:44:40.936Z,41.27
2019-01-13T10:47:10.512Z,40.87
2019-01-13T10:49:37.939Z,38.97
2019-01-13T10:52:05.365Z,40.70
2019-01-13T10:54:32.861Z,39.20
2019-01-13T10:57:01.039Z,41.03
2019-01-13T10:59:29.719Z,42.00
2019-01-13T11:01:57.040Z,37.63
2019-01-13T11:04:24.415Z,36.03
2019-01-13T11:06:51.798Z,36.77
2019-01-13T11:09:19.122Z,37.27
2019-01-13T11:11:46.506Z,32.73
2019-01-13T11:14:13.889Z,36.00
2019-01-13T11:16:41.249Z,37.90
2019-01-13T11:19:08.472Z,34.97
2019-01-13T11:21:35.819Z,37.67
2019-01-13T11:24:03.215Z,41.03
2019-01-13T11:26:30.565Z,40.47
2019-01-13T11:28:57.865Z,42.60
2019-01-13T11:31:25.253Z,40.13
2019-01-13T11:33:52.665Z,35.83
2019-01-13T11:36:20.005Z,38.70
2019-01-13T11:38:47.325Z,36.40
2019-01-13T11:41:14.663Z,37.53
2019-01-13T11:43:42.069Z,38.67
2019-01-13T11:46:09.428Z,45.30
2019-01-13T11:48:36.757Z,37.33
2019-01-13T11:51:04.086Z,33.77
2019-01-13T11:53:31.528Z,31.10
2019-01-13T11:55:58.765Z,29.83
2019-01-13T11:58:26.181Z,28.50
2019-01-13T12:00:54.667Z,30.73
2019-01-13T12:03:22.068Z,25.80
2019-01-13T12:05:49.389Z,25.10
2019-01-13T12:08:16.741Z,23.50
2019-01-13T12:10:44.012Z,24.33
2019-01-13T12:13:11.380Z,24.03
2019-01-13T12:15:38.786Z,27.07
2019-01-13T12:18:08.460Z,32.43
2019-01-13T12:20:35.949Z,25.73
2019-01-13T12:23:03.489Z,28.40
2019-01-13T12:25:30.887Z,25.37
2019-01-13T12:27:58.497Z,20.57
2019-01-13T12:30:28.197Z,28.30
2019-01-13T12:32:55.472Z,22.13
2019-01-13T12:35:23.102Z,26.90
2019-01-13T12:37:50.468Z,24.43
2019-01-13T12:40:19.018Z,18.93
2019-01-13T12:42:46.969Z,16.60
2019-01-13T12:45:15.721Z,18.00
2019-01-13T12:47:43.161Z,15.00
2019-01-13T12:50:13.808Z,16.33
2019-01-13T12:52:41.231Z,16.43
2019-01-13T12:55:08.569Z,16.97
2019-01-13T12:57:35.966Z,15.67
2019-01-13T13:00:04.852Z,12.83
2019-01-13T13:02:32.158Z,12.03
2019-01-13T13:04:59.485Z,11.53
2019-01-13T13:07:26.839Z,10.43
2019-01-13T13:09:54.325Z,12.37
2019-01-13T13:12:21.541Z,11.70
2019-01-13T13:14:49.005Z,9.00
2019-01-13T13:17:16.413Z,9.37
2019-01-13T13:19:43.800Z,9.70
2019-01-13T13:22:11.237Z,9.27
2019-01-13T13:24:38.608Z,10.33
2019-01-13T13:27:05.949Z,9.90
2019-01-13T13:29:33.269Z,8.33
2019-01-13T13:32:00.622Z,9.33
2019-01-13T13:34:27.943Z,11.17
2019-01-13T13:36:55.279Z,9.60
2019-01-13T13:39:22.550Z,8.97
2019-01-13T13:41:49.896Z,7.80
2019-01-13T13:44:17.135Z,9.03
2019-01-13T13:46:44.482Z,8.30
2019-01-13T13:49:11.812Z,7.37
2019-01-13T13:51:39.162Z,8.87
2019-01-13T13:54:06.487Z,8.37
2019-01-13T13:56:33.796Z,8.37
2019-01-13T13:59:01.184Z,7.70
2019-01-13T14:01:28.550Z,8.97
2019-01-13T14:03:56.054Z,8.73
2019-01-13T14:06:23.470Z,8.80
2019-01-13T14:08:50.749Z,7.23
2019-01-13T14:11:18.060Z,8.10
2019-01-13T14:13:45.391Z,7.10
2019-01-13T14:16:12.810Z,7.67
2019-01-13T14:18:40.036Z,7.30
2019-01-13T14:21:07.358Z,7.33
2019-01-13T14:23:34.605Z,7.13
2019-01-13T14:26:01.866Z,6.80
2019-01-13T14:28:29.161Z,9.53
2019-01-13T14:30:56.546Z,7.37
2019-01-13T14:33:25.572Z,7.93
2019-01-13T14:35:52.888Z,7.23
2019-01-13T14:38:20.261Z,7.37
2019-01-13T14:40:47.604Z,7.03
2019-01-13T14:43:14.929Z,9.40
2019-01-13T14:45:42.236Z,8.33
2019-01-13T14:48:09.602Z,7.27
2019-01-13T14:50:36.916Z,6.50
2019-01-13T14:53:05.881Z,6.83
2019-01-13T14:55:33.205Z,7.47
2019-01-13T14:58:00.445Z,7.17
2019-01-13T15:00:29.669Z,6.50
2019-01-13T15:02:57.202Z,8.27
2019-01-13T15:05:24.577Z,6.73
2019-01-13T15:07:51.785Z,7.17
2019-01-13T15:10:20.262Z,8.23
2019-01-13T15:12:47.652Z,6.53
2019-01-13T15:15:15.142Z,9.33
2019-01-13T15:17:42.368Z,8.97
2019-01-13T15:20:16.483Z,8.03
2019-01-13T15:22:43.984Z,7.87
2019-01-13T15:25:13.859Z,8.40
2019-01-13T15:27:41.294Z,8.30
2019-01-13T15:30:15.222Z,8.43
2019-01-13T15:32:42.584Z,8.23
2019-01-13T15:35:09.938Z,9.80
2019-01-13T15:37:37.144Z,8.70
2019-01-13T15:40:06.054Z,9.33
2019-01-13T15:42:33.424Z,10.93
2019-01-13T15:45:00.778Z,9.30
2019-01-13T15:47:28.085Z,10.70
2019-01-13T15:49:55.440Z,12.77
2019-01-13T15:52:22.764Z,11.57
2019-01-13T15:54:50.106Z,10.80
2019-01-13T15:57:17.432Z,8.97
2019-01-13T15:59:46.913Z,14.07
2019-01-13T16:02:14.252Z,13.07
2019-01-13T16:04:41.482Z,13.70
2019-01-13T16:07:08.824Z,16.37
2019-01-13T16:09:36.090Z,18.13
2019-01-13T16:12:03.632Z,17.00
2019-01-13T16:14:30.940Z,14.77
2019-01-13T16:16:58.191Z,15.30
2019-01-13T16:19:25.418Z,19.20
2019-01-13T16:21:52.768Z,17.80
2019-01-13T16:24:20.112Z,15.83
2019-01-13T16:26:47.419Z,16.13
2019-01-13T16:29:17.559Z,19.53
2019-01-13T16:31:44.944Z,17.97
2019-01-13T16:34:12.268Z,15.77
2019-01-13T16:36:39.604Z,13.47
2019-01-13T16:39:07.357Z,17.93
2019-01-13T16:41:34.699Z,16.07
2019-01-13T16:44:02.043Z,15.03
2019-01-13T16:46:29.267Z,18.40
2019-01-13T16:48:56.602Z,13.47
2019-01-13T16:51:23.895Z,20.17
2019-01-13T16:53:52.448Z,17.40
2019-01-13T16:56:19.807Z,15.77
2019-01-13T16:58:47.175Z,13.30
2019-01-13T17:01:14.641Z,15.70
2019-01-13T17:03:41.966Z,17.77
2019-01-13T17:06:09.409Z,19.17
2019-01-13T17:08:36.607Z,16.33
2019-01-13T17:11:04.035Z,17.17
2019-01-13T17:13:31.408Z,16.43
2019-01-13T17:15:58.766Z,15.57
2019-01-13T17:18:26.133Z,17.43
2019-01-13T17:20:53.494Z,14.70
2019-01-13T17:23:20.917Z,14.80
2019-01-13T17:25:48.244Z,17.90
2019-01-13T17:28:15.583Z,15.00
2019-01-13T17:30:42.931Z,14.47
2019-01-13T17:33:10.267Z,14.17
2019-01-13T17:35:37.579Z,14.67
2019-01-13T17:38:05.104Z,17.57
2019-01-13T17:40:32.430Z,12.50
2019-01-13T17:42:59.767Z,13.97
2019-01-13T17:45:28.863Z,17.63
2019-01-13T17:47:58.379Z,15.03
2019-01-13T17:50:25.975Z,15.47
2019-01-13T17:52:53.199Z,14.67
2019-01-13T17:55:21.978Z,13.87
2019-01-13T17:57:49.401Z,13.97
2019-01-13T18:00:38.377Z,14.23
2019-01-13T18:03:06.687Z,12.60
2019-01-13T18:05:34.052Z,15.57
2019-01-13T18:08:01.290Z,12.27
2019-01-13T18:10:28.615Z,15.03
2019-01-13T18:12:55.856Z,10.50
2019-01-13T18:15:23.215Z,13.47
2019-01-13T18:17:50.520Z,7.23
2019-01-13T18:20:17.904Z,8.23
2019-01-13T18:22:45.389Z,8.77
2019-01-13T18:25:12.726Z,5.53
2019-01-13T18:27:40.108Z,7.50
2019-01-13T18:30:13.731Z,12.13
2019-01-13T18:32:41.084Z,7.93
2019-01-13T18:35:10.239Z,8.00
2019-01-13T18:37:37.602Z,8.43
2019-01-13T18:40:07.746Z,11.13
2019-01-13T18:42:35.074Z,9.00
2019-01-13T18:45:02.422Z,10.33
2019-01-13T18:47:29.778Z,12.37
2019-01-13T18:49:57.167Z,12.70
2019-01-13T18:52:24.579Z,11.97
2019-01-13T18:54:51.902Z,10.60
2019-01-13T18:57:19.260Z,12.40
2019-01-13T18:59:46.927Z,16.43
2019-01-13T19:02:14.269Z,10.87
2019-01-13T19:04:41.617Z,10.03
2019-01-13T19:07:09.030Z,8.63
2019-01-13T19:09:39.488Z,8.07
2019-01-13T19:12:07.073Z,7.47
2019-01-13T19:14:39.752Z,8.60
2019-01-13T19:17:11.646Z,12.93
2019-01-13T19:19:50.573Z,7.13
2019-01-13T19:22:18.436Z,9.43
2019-01-13T19:24:47.250Z,6.73
2019-01-13T19:27:14.711Z,3.33
2019-01-13T19:29:41.989Z,6.80
2019-01-13T19:32:09.363Z,7.87
2019-01-13T19:34:36.609Z,9.50
2019-01-13T19:37:03.908Z,7.47
2019-01-13T19:39:31.179Z,11.30
2019-01-13T19:41:58.527Z,7.20
2019-01-13T19:44:25.983Z,9.40
2019-01-13T19:46:53.357Z,6.30
2019-01-13T19:49:21.095Z,2.10
2019-01-13T19:51:48.442Z,5.00
2019-01-13T19:54:15.851Z,7.83
2019-01-13T19:56:45.131Z,4.80
2019-01-13T19:59:12.408Z,3.10
2019-01-13T20:01:39.694Z,3.87
2019-01-13T20:04:07.107Z,5.93
2019-01-13T20:06:34.443Z,8.50
2019-01-13T20:09:01.688Z,6.47
2019-01-13T20:11:28.990Z,4.80
2019-01-13T20:13:56.361Z,9.13
2019-01-13T20:16:23.745Z,7.77
2019-01-13T20:18:51.140Z,8.70
2019-01-13T20:21:18.408Z,6.93
2019-01-13T20:23:45.745Z,10.20
2019-01-13T20:26:12.989Z,9.68
2019-01-13T20:28:40.300Z,11.20
2019-01-13T20:31:07.561Z,12.95
2019-01-13T20:33:34.909Z,10.90
2019-01-13T20:36:02.279Z,11.77
2019-01-13T20:38:29.722Z,13.77
2019-01-13T20:40:57.124Z,11.03
2019-01-13T20:43:24.616Z,11.27
2019-01-13T20:45:51.927Z,13.07
2019-01-13T20:48:19.275Z,12.67
2019-01-13T20:50:46.642Z,11.30
2019-01-13T20:53:13.988Z,15.23
2019-01-13T20:55:43.655Z,15.37
2019-01-13T20:58:11.028Z,10.07
2019-01-13T21:00:40.370Z,16.93
2019-01-13T21:03:07.766Z,7.47
2019-01-13T21:05:35.163Z,12.20
2019-01-13T21:08:05.676Z,12.67
2019-01-13T21:10:32.941Z,12.17
2019-01-13T21:13:00.401Z,8.77
2019-01-13T21:15:29.949Z,10.03
2019-01-13T21:17:57.589Z,9.57
2019-01-13T21:20:25.376Z,11.10
2019-01-13T21:22:52.603Z,10.40
2019-01-13T21:25:19.870Z,10.40
2019-01-13T21:27:47.262Z,13.37
2019-01-13T21:30:17.585Z,12.90
2019-01-13T21:32:44.925Z,13.33
2019-01-13T21:35:14.665Z,12.10
2019-01-13T21:37:42.003Z,15.10
2019-01-13T21:40:09.628Z,12.17
2019-01-13T21:42:36.846Z,9.83
2019-01-13T21:45:05.735Z,16.53
2019-01-13T21:47:32.968Z,16.97
2019-01-13T21:50:00.773Z,18.00
2019-01-13T21:52:28.085Z,17.97
2019-01-13T21:54:55.281Z,17.97
2019-01-13T21:57:22.692Z,16.23
2019-01-13T21:59:49.998Z,20.40
2019-01-13T22:02:17.321Z,21.73
2019-01-13T22:04:44.534Z,18.87
2019-01-13T22:07:11.925Z,15.23
2019-01-13T22:09:39.228Z,16.67
2019-01-13T22:12:07.357Z,20.70
2019-01-13T22:14:34.669Z,15.60
2019-01-13T22:17:01.878Z,16.60
2019-01-13T22:19:29.075Z,17.23
2019-01-13T22:21:56.345Z,18.67
2019-01-13T22:24:23.698Z,16.70
2019-01-13T22:26:51.478Z,21.27
2019-01-13T22:29:18.696Z,20.07
2019-01-13T22:31:46.022Z,17.57
2019-01-13T22:34:13.292Z,22.10
2019-01-13T22:36:40.632Z,17.33
2019-01-13T22:39:07.987Z,18.10
2019-01-13T22:41:35.465Z,17.20
2019-01-13T22:44:02.826Z,23.98
2019-01-13T22:46:30.161Z,22.63
2019-01-13T22:48:57.478Z,20.10
2019-01-13T22:51:24.854Z,20.23
2019-01-13T22:53:52.236Z,13.83
2019-01-13T22:56:19.482Z,15.17
2019-01-13T22:58:46.900Z,13.63
2019-01-13T23:01:45.286Z,20.67
2019-01-13T23:04:16.923Z,14.37
2019-01-13T23:06:44.296Z,19.60
2019-01-13T23:09:12.176Z,12.87
2019-01-13T23:11:39.582Z,20.93
2019-01-13T23:14:06.986Z,10.53
2019-01-13T23:16:34.494Z,9.43
2019-01-13T23:19:01.824Z,14.40
2019-01-13T23:21:29.107Z,12.73
2019-01-13T23:23:56.444Z,12.50
2019-01-13T23:26:23.802Z,12.07
2019-01-13T23:28:51.220Z,16.13
2019-01-13T23:31:18.564Z,15.97
2019-01-13T23:33:45.916Z,12.70
2019-01-13T23:36:13.232Z,19.33
2019-01-13T23:38:40.666Z,20.17
2019-01-13T23:41:08.072Z,12.67
2019-01-13T23:43:35.596Z,18.07
2019-01-13T23:46:05.896Z,20.70
2019-01-13T23:48:33.206Z,22.77
2019-01-13T23:51:00.532Z,18.73
2019-01-13T23:53:27.918Z,24.53
2019-01-13T23:55:55.332Z,18.10
2019-01-13T23:58:22.650Z,25.10
